Date,TemperatureHighF,TemperatureAvgF,TemperatureLowF,DewpointHighF,DewpointAvgF,DewpointLowF,HumidityHigh,HumidityAvg,HumidityLow,PressureMaxIn,PressureMinIn,WindSpeedMaxMPH,WindSpeedAvgMPH,GustSpeedMaxMPH,PrecipitationSumIn
2012-1-1,75,62,38,31,25,22,60,26,14,0.00,40.00,11,7,16,0.00
2012-1-2,76,63,39,31,24,20,56,25,13,0.00,40.00,9,6,14,0.00
2012-1-3,74,60,38,32,27,21,65,32,17,0.00,40.00,8,5,12,0.00
2012-1-4,78,63,37,32,27,23,79,30,13,0.00,40.00,11,6,15,0.00
2012-1-5,74,58,32,30,27,23,78,36,15,0.00,40.00,8,5,13,0.00
2012-1-6,74,58,32,32,28,25,80,37,19,0.00,40.00,6,4,10,0.00
2012-1-7,71,57,35,31,28,20,78,36,19,0.00,40.00,10,5,14,0.00
2012-1-8,68,59,50,22,17,11,30,20,12,0.00,40.00,20,12,29,0.00
2012-1-9,69,58,36,25,21,15,56,26,15,0.00,40.00,9,6,16,0.00
2012-1-10,69,54,28,28,26,18,69,38,20,0.00,40.00,7,4,11,0.00
2012-1-11,67,56,33,32,29,23,74,38,21,0.00,40.00,6,4,11,0.00
2012-1-12,65,56,37,23,15,8,46,22,11,0.00,40.00,11,7,15,0.00
2012-1-13,69,55,31,18,11,5,52,20,8,0.00,40.00,12,7,17,0.00
2012-1-14,64,53,30,21,10,3,48,20,9,0.00,40.00,8,5,13,0.00
2012-1-15,64,56,30,28,22,15,64,29,15,0.00,40.00,11,6,18,0.00
2012-1-16,69,60,51,43,37,30,60,44,30,0.00,40.00,13,8,22,0.00
2012-1-17,65,52,30,34,29,22,83,46,23,0.00,40.00,7,4,13,0.00
2012-1-18,67,54,27,34,29,23,84,42,25,0.00,40.00,6,4,10,0.00
2012-1-19,70,55,27,34,30,22,89,42,25,0.00,40.00,6,4,10,0.00
2012-1-20,74,54,33,33,29,25,77,41,18,0.00,40.00,6,4,10,0.00
2012-1-22,67,56,33,29,26,24,68,34,21,0.00,40.00,6,4,18,0.00
2012-1-23,70,57,33,48,32,19,72,45,15,0.00,40.00,15,8,23,0.00
2012-1-24,69,59,41,41,32,22,84,42,19,0.00,40.00,16,8,27,0.00
2012-1-25,75,63,46,26,23,20,43,23,14,0.00,40.00,12,8,19,0.00
2012-1-26,79,62,33,36,32,23,68,35,19,0.00,40.00,7,4,10,0.00
2012-1-27,73,62,38,38,31,20,74,34,19,0.00,40.00,14,9,22,0.00
2012-1-28,72,62,43,22,10,1,36,14,6,0.00,40.00,14,10,24,0.00
2012-1-29,73,60,31,22,11,5,47,17,7,0.00,40.00,10,7,16,0.00
2012-1-30,76,59,27,26,16,9,71,23,9,0.00,40.00,6,4,10,0.00
2012-1-31,75,60,33,28,22,17,67,28,11,0.00,40.00,7,4,10,0.00
2012-2-1,77,59,31,27,21,15,68,27,11,0.00,40.00,9,4,15,0.00
2012-2-3,68,58,31,26,21,10,51,25,17,0.00,40.00,11,7,19,0.00
2012-2-4,71,57,30,26,24,16,70,31,16,0.00,40.00,10,6,17,0.00
2012-2-5,71,58,28,27,24,17,71,30,17,0.00,40.00,10,6,16,0.00
2012-2-6,71,58,34,29,24,18,70,31,17,0.00,40.00,10,5,14,0.00
2012-2-7,71,60,36,32,26,24,63,30,17,0.00,40.00,9,5,12,0.00
2012-2-8,77,63,49,34,28,23,57,29,15,0.00,40.00,9,5,17,0.00
2012-2-9,81,66,40,31,28,24,60,26,14,0.00,40.00,11,7,17,0.00
2012-2-10,84,66,38,31,27,23,59,26,11,0.00,40.00,7,4,11,0.00
2012-2-11,78,64,50,37,32,28,46,31,17,0.00,40.00,14,8,22,0.00
2012-2-12,73,60,46,40,36,33,68,45,23,0.00,40.00,11,6,19,0.00
2012-2-13,69,58,49,39,37,26,67,46,31,0.00,40.00,21,10,35,0.00
2012-2-14,66,55,47,36,30,26,61,41,24,0.00,40.00,20,6,35,0.00
2012-2-15,67,55,44,43,36,31,73,52,28,0.00,40.00,16,8,27,0.00
2012-2-16,70,56,44,43,38,28,79,54,25,0.00,40.00,15,8,23,0.00
2012-2-17,74,60,41,29,24,17,56,29,12,0.00,40.00,13,8,21,0.00
2012-2-18,74,60,40,44,36,24,93,45,21,0.00,40.00,12,6,20,0.00
2012-2-19,74,61,49,40,31,21,65,36,15,0.00,40.00,12,7,23,0.00
2012-2-20,71,60,32,28,24,20,68,29,16,0.00,40.00,6,5,13,0.00
2012-2-21,75,61,32,24,18,15,66,23,11,0.00,40.00,9,6,15,0.00
2012-2-22,81,66,33,35,28,15,57,27,16,0.00,40.00,10,6,15,0.00
2012-2-23,84,65,45,36,31,23,64,33,13,0.00,40.00,8,6,14,0.00
2012-2-24,78,69,49,28,16,5,37,15,6,0.00,40.00,12,8,22,0.00
2012-2-25,85,69,34,31,22,14,53,20,8,0.00,40.00,8,5,17,0.00
2012-2-26,79,65,39,31,17,7,62,21,7,0.00,40.00,11,6,18,0.00
2012-2-27,70,59,45,34,30,16,51,35,23,0.00,40.00,15,10,26,0.00
2012-2-28,65,55,39,32,27,18,54,36,20,0.00,40.00,13,7,26,0.00
2012-2-29,72,55,36,34,26,17,64,38,12,0.00,40.00,8,5,16,0.00
2012-3-1,77,61,45,39,34,27,73,42,16,0.00,40.00,15,8,25,0.00
2012-3-2,66,58,43,33,4,-11,61,15,4,0.00,40.00,23,14,34,0.00
2012-3-3,75,61,34,18,9,3,35,14,7,0.00,40.00,13,8,20,0.00
2012-3-4,83,69,36,28,20,10,54,18,9,0.00,40.00,10,7,16,0.00
2012-3-5,83,67,33,27,22,15,62,22,8,0.00,40.00,8,4,12,0.00
2012-3-6,83,68,54,33,24,18,38,21,10,0.00,40.00,22,12,34,0.00
2012-3-7,63,56,42,18,6,-4,33,14,7,0.00,40.00,21,12,35,0.00
2012-3-8,76,64,30,22,16,12,54,18,10,0.00,40.00,12,8,20,0.00
2012-3-9,81,68,40,25,19,16,46,17,9,0.00,40.00,12,7,20,0.00
2012-3-10,80,67,37,29,21,-100,56,20,11,0.00,40.00,9,6,16,0.00
2012-3-11,83,68,46,31,20,5,41,20,5,0.00,40.00,12,8,21,0.00
2012-3-12,84,69,42,31,19,9,60,18,6,0.00,40.00,9,6,15,0.00
2012-3-13,84,68,48,33,26,22,50,24,10,0.00,40.00,9,6,19,0.00
2012-3-14,85,67,48,36,29,17,55,28,8,0.00,40.00,7,4,14,0.00
2012-3-15,88,68,43,34,29,19,58,26,8,0.00,40.00,9,4,17,0.00
2012-3-16,87,72,53,42,36,28,52,28,14,0.00,40.00,12,7,20,0.00
2012-3-17,72,65,54,54,42,37,82,47,31,0.00,40.00,19,8,31,0.18
2012-3-18,60,53,46,39,32,24,66,47,27,0.00,40.00,21,12,34,0.18
2012-3-19,66,54,44,37,27,15,63,39,15,0.00,40.00,13,5,21,0.00
2012-3-20,71,57,37,40,30,-100,86,45,15,0.00,40.00,9,5,16,0.00
2012-3-21,74,57,36,35,31,26,81,41,17,0.00,40.00,6,5,12,0.00
2012-3-23,86,79,62,38,32,29,35,19,14,0.00,40.00,9,7,18,0.00
2012-3-24,85,73,47,40,33,26,62,25,12,0.00,40.00,9,6,20,0.00
2012-3-25,81,70,55,42,36,31,48,31,20,0.00,40.00,16,10,26,0.00
2012-3-26,76,64,47,38,33,27,59,34,18,0.00,40.00,10,6,25,0.00
2012-3-27,83,65,43,38,30,20,69,31,12,0.00,40.00,7,5,13,0.00
2012-3-28,86,72,44,33,22,9,59,18,6,0.00,40.00,8,5,14,0.00
2012-3-29,87,74,51,35,30,22,44,21,12,0.00,40.00,7,5,14,0.00
2012-3-30,92,77,49,42,38,35,70,27,14,0.00,40.00,9,6,16,0.00
2012-3-31,90,76,60,40,32,25,34,21,11,0.00,40.00,16,9,26,0.00
2012-4-1,76,66,57,43,28,9,53,28,9,0.00,40.00,16,10,29,0.00
2012-4-2,77,69,48,22,11,4,36,12,6,0.00,40.00,16,11,29,0.00
2012-4-3,84,72,41,31,19,13,50,16,7,0.00,40.00,9,6,19,0.00
2012-4-4,88,73,54,34,26,21,36,19,9,0.00,40.00,10,7,18,0.00
2012-4-5,86,73,60,29,18,2,27,15,4,0.00,40.00,12,7,21,0.00
2012-4-6,79,67,49,36,12,-3,38,14,4,0.00,40.00,15,10,25,0.00
2012-4-7,85,72,43,23,10,-4,42,12,3,0.00,40.00,10,7,18,0.00
2012-4-8,92,74,37,28,16,0,57,15,3,0.00,40.00,7,5,12,0.00
2012-4-9,94,77,48,32,22,12,53,16,5,0.00,40.00,8,5,19,0.00
2012-4-10,91,77,54,38,31,23,37,20,11,0.00,40.00,17,9,28,0.00
2012-4-11,76,68,57,42,37,32,55,34,22,0.00,40.00,17,11,26,0.00
2012-4-12,78,65,53,38,32,17,57,32,12,0.00,40.00,13,8,24,0.00
2012-4-13,75,64,54,46,36,25,67,38,16,0.00,40.00,22,9,31,0.01
2012-4-14,71,58,46,37,30,-100,62,39,18,0.00,40.00,15,10,25,0.01
2012-4-15,80,64,46,40,35,33,66,38,19,0.00,40.00,8,5,14,0.00
2012-4-16,87,69,50,41,36,24,62,34,10,0.00,40.00,7,5,17,0.00
2012-4-17,93,80,46,39,29,20,74,21,7,0.00,40.00,7,5,13,0.00
2012-4-18,98,77,56,37,31,17,44,22,6,0.00,40.00,11,6,20,0.00
2012-4-19,96,79,60,44,36,30,39,23,11,0.00,40.00,7,4,14,0.00
2012-4-20,101,86,56,47,38,26,62,24,7,0.00,40.00,12,7,18,0.00
2012-4-21,105,86,60,45,38,28,51,22,7,0.00,40.00,7,5,17,0.00
2012-4-22,105,92,64,50,34,24,49,18,6,0.00,40.00,9,5,18,0.00
2012-4-23,97,84,72,46,38,31,34,20,14,0.00,40.00,14,9,24,0.00
2012-4-24,95,78,62,46,41,33,54,30,12,0.00,40.00,10,6,17,0.00
2012-4-25,92,82,73,50,41,35,36,24,14,0.00,40.00,10,5,15,0.00
2012-4-26,81,72,59,58,46,38,91,43,24,0.00,40.00,19,10,31,0.24
2012-4-27,86,72,57,52,46,39,74,43,20,0.00,40.00,8,6,22,0.01
2012-4-28,95,79,55,50,34,-100,76,28,6,0.00,40.00,10,6,18,0.00
2012-4-29,96,82,54,45,33,18,55,21,6,0.00,40.00,8,4,19,0.00
2012-4-30,93,79,63,47,42,32,51,30,12,0.00,40.00,11,7,19,0.00
2012-5-1,94,80,65,49,42,30,55,29,12,0.00,40.00,12,8,22,0.00
2012-5-2,88,77,68,55,46,33,62,37,14,0.00,40.00,11,8,20,0.00
2012-5-3,92,78,59,49,43,30,65,32,11,0.00,40.00,11,7,20,0.00
2012-5-4,96,81,59,50,35,14,65,27,5,0.00,40.00,11,7,20,0.00
2012-5-8,92,80,54,37,20,6,43,13,4,0.00,40.00,13,7,22,0.00
2012-5-9,99,87,53,43,30,20,53,16,6,0.00,40.00,17,7,29,0.00
2012-5-10,101,87,65,49,37,22,51,20,7,0.00,40.00,12,7,21,0.00
2012-5-11,100,84,66,39,28,21,32,15,6,0.00,40.00,10,6,21,0.00
2012-5-12,103,83,66,42,33,-100,35,19,6,0.00,40.00,9,6,14,0.00
2012-5-13,107,89,65,43,35,17,38,18,4,0.00,40.00,6,5,14,0.00
2012-5-14,109,93,65,48,32,18,51,16,4,0.00,40.00,7,4,13,0.00
2012-5-15,105,90,64,45,26,-14,40,13,1,0.00,40.00,11,6,18,0.00
2012-5-16,108,92,56,42,30,17,44,14,4,0.00,40.00,7,4,10,0.00
2012-5-17,103,90,64,48,39,31,48,19,10,0.00,40.00,13,9,24,0.00
2012-5-18,98,86,69,44,31,26,27,15,8,0.00,40.00,9,6,17,0.00
2012-5-19,103,88,57,50,33,-100,68,20,6,0.00,40.00,9,5,14,0.00
2012-5-20,108,90,65,48,34,25,36,17,6,0.00,40.00,7,5,11,0.00
2012-5-21,110,94,66,47,34,23,44,15,5,0.00,40.00,8,6,15,0.00
2012-5-22,106,97,71,45,32,16,35,12,4,0.00,40.00,11,7,20,0.00
2012-5-23,104,90,74,49,43,33,35,21,10,0.00,40.00,12,7,23,0.00
2012-5-24,96,84,69,56,48,40,46,31,16,0.00,40.00,13,8,21,0.00
2012-5-25,89,77,66,58,51,34,67,43,23,0.00,40.00,16,11,29,0.00
2012-5-26,82,69,57,41,34,29,42,29,15,0.00,40.00,16,9,29,0.00
2012-5-27,89,76,48,46,35,25,71,28,10,0.00,40.00,8,5,16,0.00
2012-5-28,98,84,49,42,31,20,60,19,6,0.00,40.00,7,4,14,0.00
2012-5-29,101,86,58,44,35,26,45,18,8,0.00,40.00,11,6,16,0.00
2012-5-30,104,87,66,43,34,26,38,17,7,0.00,40.00,7,5,18,0.00
2012-5-31,112,92,67,50,36,25,40,18,5,0.00,40.00,8,5,14,0.00
2012-6-1,114,100,66,47,29,14,37,11,4,0.00,40.00,13,7,22,0.00
2012-6-2,105,92,74,44,32,-100,21,13,8,0.00,40.00,13,8,33,0.00
2012-6-3,102,89,71,53,43,33,45,22,12,0.00,40.00,11,7,18,0.00
2012-6-4,102,89,71,52,47,38,39,24,11,0.00,40.00,11,7,20,0.00
2012-6-5,96,85,74,52,41,28,45,25,9,0.00,40.00,12,7,19,0.00
2012-6-6,98,86,62,49,32,23,46,17,7,0.00,40.00,9,6,17,0.00
2012-6-7,104,94,59,49,33,22,39,14,7,0.00,40.00,8,5,14,0.00
2012-6-8,103,88,68,42,38,35,38,19,10,0.00,40.00,10,7,17,0.00
2012-6-9,103,88,72,52,42,33,39,22,12,0.00,40.00,11,8,28,0.00
2012-6-10,102,87,68,48,36,28,46,20,9,0.00,40.00,9,5,16,0.00
2012-6-11,105,91,68,59,40,30,44,19,9,0.00,40.00,8,6,15,0.00
2012-6-12,107,92,66,42,37,30,36,16,7,0.00,40.00,9,6,17,0.00
2012-6-13,106,93,76,50,37,23,34,16,6,0.00,40.00,13,7,22,0.00
2012-6-14,103,90,68,52,42,31,41,20,12,0.00,40.00,11,7,18,0.00
2012-6-15,102,88,67,52,44,38,53,24,11,0.00,40.00,11,7,20,0.00
2012-6-16,101,88,58,54,43,35,62,24,11,0.00,40.00,9,4,17,0.00
2012-6-17,113,94,63,52,44,37,60,21,9,0.00,40.00,7,4,15,0.00
2012-6-18,113,98,81,53,36,23,34,14,5,0.00,40.00,19,9,35,0.00
2012-6-19,110,97,76,42,28,18,29,10,4,0.00,40.00,14,8,25,0.00
2012-6-20,111,100,72,48,38,28,37,14,6,0.00,40.00,8,5,13,0.00
2012-6-21,106,92,71,55,46,34,35,21,14,0.00,40.00,13,8,20,0.00
2012-6-22,105,92,75,47,33,18,29,16,5,0.00,40.00,11,7,24,0.00
2012-6-23,104,88,69,46,35,26,34,18,8,0.00,40.00,10,6,20,0.00
2012-6-24,104,93,71,59,48,34,33,22,18,0.00,40.00,12,7,20,0.00
2012-6-25,106,92,74,48,41,35,32,18,9,0.00,40.00,9,7,16,0.00
2012-6-26,109,95,72,50,39,32,40,17,8,0.00,40.00,10,5,21,0.00
2012-6-27,108,97,72,57,49,35,48,20,11,0.00,40.00,11,6,19,0.00
2012-6-28,109,96,74,62,56,51,49,28,17,0.00,40.00,11,7,18,0.00
2012-6-29,111,98,81,53,43,25,33,18,7,0.00,40.00,12,7,19,0.00
2012-6-30,110,97,74,56,36,17,30,14,4,0.00,40.00,9,6,17,0.00
2012-7-1,108,93,77,48,39,22,32,18,5,0.00,40.00,10,6,19,0.00
2012-7-2,104,91,70,66,55,45,46,30,19,0.00,40.00,12,8,20,0.00
2012-7-3,97,88,79,68,63,53,66,45,25,0.00,40.00,13,8,25,0.00
2012-7-4,90,84,75,71,66,62,83,57,41,0.00,40.00,10,6,17,0.04
2012-7-5,103,93,69,68,56,48,76,34,17,0.00,40.00,8,5,16,0.02
2012-7-6,107,92,73,52,43,33,39,21,8,0.00,40.00,9,5,16,0.00
2012-7-7,111,95,75,54,39,11,46,18,3,0.00,40.00,10,6,19,0.00
2012-7-8,115,101,72,48,38,30,38,13,6,0.00,40.00,7,5,17,0.00
2012-7-9,115,102,77,53,47,41,37,17,9,0.00,40.00,9,5,18,0.00
2012-7-10,117,100,82,61,55,47,39,24,12,0.00,40.00,11,6,17,0.00
2012-7-11,111,100,92,66,60,53,35,27,18,0.00,40.00,15,7,21,0.00
2012-7-12,101,90,80,71,67,62,75,48,29,0.00,40.00,14,6,31,0.02
2012-7-13,101,88,75,75,69,63,97,57,32,0.00,40.00,15,6,28,0.57
2012-7-14,100,84,73,76,73,69,99,73,40,0.00,40.00,12,4,31,0.27
2012-7-15,101,90,72,72,68,60,95,53,32,0.00,40.00,9,5,16,0.03
2012-7-16,104,92,76,66,52,36,62,29,12,0.00,40.00,13,7,21,0.00
2012-7-17,103,92,65,51,37,23,58,17,6,0.00,40.00,9,6,17,0.00
2012-7-18,107,94,70,55,43,30,55,21,7,0.00,40.00,9,5,15,0.00
2012-7-19,102,92,77,62,56,38,46,30,18,0.00,40.00,8,5,14,0.00
2012-7-20,111,96,79,65,59,55,56,32,17,0.00,40.00,8,5,15,0.00
2012-7-21,109,97,85,69,64,59,57,36,20,0.00,40.00,18,6,26,0.00
2012-7-22,108,96,84,72,68,63,61,42,25,0.00,40.00,11,5,24,0.00
2012-7-23,108,98,85,74,67,56,67,40,25,0.00,40.00,7,5,15,0.00
2012-7-24,110,98,84,61,53,33,43,24,11,0.00,40.00,8,6,15,0.00
2012-7-25,108,96,76,60,46,32,34,20,8,0.00,40.00,9,6,16,0.00
2012-7-26,109,96,82,62,51,30,45,26,7,0.00,40.00,8,6,16,0.00
2012-7-27,110,96,74,61,42,3,50,21,2,0.00,40.00,9,6,17,0.00
2012-7-28,104,92,72,65,54,38,46,29,17,0.00,40.00,12,8,19,0.00
2012-7-29,105,90,83,75,68,58,71,48,24,0.00,40.00,10,5,17,0.06
2012-7-30,92,82,78,77,74,72,86,76,54,0.00,40.00,13,4,19,0.06
2012-7-31,88,82,77,76,74,73,92,79,63,0.00,40.00,9,4,15,0.06
2012-8-1,100,86,79,75,72,65,84,65,32,0.00,40.00,6,4,10,0.02
2012-8-2,105,99,84,73,64,58,65,34,25,0.00,40.00,7,5,14,0.00
2012-8-3,109,96,80,68,59,51,61,32,16,0.00,40.00,9,5,16,0.00
2012-8-4,108,96,74,63,55,48,58,28,15,0.00,40.00,10,6,17,0.00
2012-8-5,108,96,77,66,59,52,52,32,20,0.00,40.00,10,6,18,0.00
2012-8-6,114,98,85,66,59,53,46,30,15,0.00,40.00,7,4,16,0.00
2012-8-7,114,101,87,68,62,58,53,31,17,0.00,40.00,9,5,16,0.00
2012-8-8,117,102,83,67,60,53,53,29,13,0.00,40.00,9,6,14,0.00
2012-8-9,110,99,88,70,65,56,55,34,22,0.00,40.00,15,7,21,0.00
2012-8-10,115,100,80,70,64,56,63,35,15,0.00,40.00,11,6,32,0.00
2012-8-11,115,100,87,65,57,-100,48,27,14,0.00,40.00,15,6,26,0.00
2012-8-12,117,103,80,68,60,53,57,28,13,0.00,40.00,8,5,12,0.00
2012-8-13,117,103,79,67,59,52,60,27,13,0.00,40.00,10,5,27,0.00
2012-8-14,115,102,81,70,58,48,52,26,12,0.00,40.00,10,6,15,0.00
2012-8-15,101,93,88,72,67,63,58,43,31,0.00,40.00,16,9,26,0.00
2012-8-16,94,87,78,79,73,66,89,65,47,0.00,40.00,12,7,21,0.39
2012-8-17,96,86,75,75,72,69,92,66,47,0.00,40.00,12,6,25,0.01
2012-8-18,102,91,80,76,72,67,84,58,34,0.00,40.00,7,5,15,0.01
2012-8-19,105,94,81,72,70,67,74,49,31,0.00,40.00,9,6,16,0.00
2012-8-20,106,95,85,71,68,66,62,44,31,0.00,40.00,9,6,17,0.00
2012-8-21,104,94,85,73,69,65,65,45,32,0.00,40.00,10,7,18,0.00
2012-8-22,103,88,76,78,70,67,94,57,33,0.00,40.00,16,6,28,0.61
2012-8-23,100,85,75,74,72,68,95,68,37,0.00,40.00,11,4,18,0.61
2012-8-24,105,90,80,76,70,62,75,54,25,0.00,40.00,7,5,14,0.00
2012-8-25,105,93,81,67,62,54,59,38,19,0.00,40.00,9,6,15,0.00
2012-8-26,106,92,78,66,60,54,63,37,20,0.00,40.00,9,6,16,0.00
2012-8-27,112,95,75,62,52,45,47,27,12,0.00,40.00,6,4,10,0.00
2012-8-28,110,97,72,66,60,56,70,33,18,0.00,40.00,8,4,15,0.00
2012-8-29,106,94,86,74,67,62,62,42,28,0.00,40.00,10,6,16,0.00
2012-8-30,90,85,81,72,69,65,75,60,44,0.00,40.00,10,5,15,0.02
2012-8-31,100,89,76,73,70,66,83,56,35,0.00,40.00,9,6,15,0.02
2012-9-1,106,92,81,72,62,43,67,41,17,0.00,40.00,7,4,14,0.00
2012-9-2,110,97,77,58,51,44,47,23,12,0.00,40.00,7,4,17,0.00
2012-9-3,103,93,83,75,69,55,69,47,33,0.00,40.00,11,7,21,0.00
2012-9-4,102,88,83,76,72,67,73,59,34,0.00,40.00,15,7,25,0.00
2012-9-5,105,89,78,75,71,67,81,57,32,0.00,40.00,14,5,27,0.00
2012-9-6,103,92,82,76,70,64,80,52,29,0.00,40.00,13,6,21,0.00
2012-9-7,100,90,81,72,69,66,66,51,35,0.00,40.00,8,6,14,0.00
2012-9-8,104,92,83,73,69,62,67,49,27,0.00,40.00,7,4,12,0.00
2012-9-9,104,90,76,72,66,61,80,49,25,0.00,40.00,13,4,37,0.55
2012-9-10,91,82,74,72,70,66,88,68,49,0.00,40.00,10,5,19,0.55
2012-9-11,92,82,76,71,69,66,80,65,45,0.00,40.00,10,6,19,0.00
2012-9-12,99,86,72,72,70,66,89,61,37,0.00,40.00,6,3,11,0.00
2012-9-13,104,89,72,70,60,47,87,45,15,0.00,40.00,11,6,18,0.00
2012-9-14,103,90,74,57,46,33,52,26,9,0.00,40.00,15,8,28,0.00
2012-9-15,103,90,64,55,45,35,70,25,10,0.00,40.00,9,5,16,0.00
2012-9-16,101,86,66,66,55,45,55,37,21,0.00,40.00,9,5,16,0.00
2012-9-17,103,88,74,72,61,49,78,44,17,0.00,40.00,7,4,11,0.00
2012-9-18,106,89,69,63,51,44,56,31,13,0.00,40.00,7,4,12,0.00
2012-9-19,107,90,68,57,50,43,62,29,12,0.00,40.00,6,4,12,0.00
2012-9-20,108,91,69,58,50,39,64,28,10,0.00,40.00,7,5,15,0.00
2012-9-21,108,94,67,58,49,43,66,26,12,0.00,40.00,8,4,13,0.00
2012-9-22,108,90,67,57,48,-100,69,28,12,0.00,40.00,8,4,15,0.00
2012-9-23,109,92,67,60,48,38,69,26,10,0.00,40.00,9,4,15,0.00
2012-9-24,106,90,73,53,45,37,40,22,11,0.00,40.00,15,7,26,0.00
2012-9-25,100,86,73,53,48,40,43,28,13,0.00,40.00,9,6,16,0.00
2012-9-26,100,84,62,55,49,43,69,33,15,0.00,40.00,6,5,13,0.00
2012-9-27,100,87,65,66,55,45,61,37,21,0.00,40.00,8,5,16,0.00
2012-9-28,100,85,67,71,61,51,84,50,20,0.00,40.00,7,4,10,0.00
2012-9-29,104,85,64,58,52,47,68,36,15,0.00,40.00,7,4,10,0.00
2012-9-30,105,88,62,61,49,42,77,32,12,0.00,40.00,7,5,11,0.00
2012-10-1,106,89,60,53,44,38,74,26,10,0.00,40.00,8,5,14,0.00
2012-10-2,107,89,57,56,42,29,77,25,7,0.00,40.00,5,3,9,0.00
2012-10-3,107,88,69,56,43,33,45,24,8,0.00,40.00,10,5,25,0.00
2012-10-4,98,87,73,47,41,35,37,22,11,0.00,40.00,7,6,15,0.00
2012-10-5,98,80,60,54,43,36,56,30,14,0.00,40.00,7,4,12,0.00
2012-10-6,96,79,60,51,45,36,54,31,17,0.00,40.00,7,4,12,0.00
2012-10-7,97,81,66,55,48,42,60,34,15,0.00,40.00,6,4,11,0.00
2012-10-8,95,81,62,67,54,46,60,42,24,0.00,40.00,9,6,17,0.00
2012-10-9,94,82,67,67,63,58,81,54,34,0.00,40.00,9,6,15,0.00
2012-10-10,90,80,67,66,60,43,84,53,26,0.00,40.00,11,6,20,0.00
2012-10-11,82,73,63,58,47,38,85,42,21,0.00,40.00,10,6,20,0.16
2012-10-12,79,69,60,53,46,40,73,46,25,0.00,40.00,10,6,24,0.01
2012-10-13,83,69,49,51,48,43,80,50,28,0.00,40.00,8,5,14,0.00
2012-10-14,91,76,53,55,50,47,83,45,22,0.00,40.00,11,7,18,0.00
2012-10-15,95,80,54,52,48,40,78,37,15,0.00,40.00,9,5,13,0.00
2012-10-16,97,80,52,55,44,36,85,35,12,0.00,40.00,6,4,10,0.00
2012-10-17,95,78,52,62,46,40,74,36,16,0.00,40.00,7,4,11,0.00
2012-10-18,94,79,62,70,60,48,77,55,34,0.00,40.00,7,4,12,0.00
2012-10-19,94,76,51,52,41,30,78,35,11,0.00,40.00,7,5,11,0.00
2012-10-20,94,80,53,54,49,39,72,36,23,0.00,40.00,10,6,17,0.00
2012-10-21,86,76,67,56,52,47,62,44,30,0.00,40.00,10,7,16,0.00
2012-10-22,87,75,56,58,48,38,80,43,20,0.00,40.00,11,6,16,0.00
2012-10-23,83,71,52,51,44,31,73,40,17,0.00,40.00,9,5,15,0.00
2012-10-24,81,67,50,48,41,33,74,43,18,0.00,40.00,9,5,15,0.00
2012-10-25,83,67,42,39,32,25,66,33,12,0.00,40.00,9,5,15,0.00
2012-10-26,79,68,42,35,26,19,66,25,11,0.00,40.00,13,8,23,0.00
2012-10-27,85,66,46,35,24,16,55,24,8,0.00,40.00,8,6,15,0.00
2012-10-28,87,68,40,43,33,28,70,35,12,0.00,40.00,7,4,11,0.00
2012-10-29,88,68,39,44,35,31,77,36,13,0.00,40.00,6,4,10,0.00
2012-10-30,89,68,39,47,36,30,81,37,15,0.00,40.00,7,4,10,0.00
2012-10-31,90,68,40,46,34,28,77,35,11,0.00,40.00,6,3,9,0.00
2012-11-1,90,71,40,40,35,28,78,33,11,0.00,40.00,8,4,12,0.00
2012-11-2,88,72,47,46,41,36,71,36,18,0.00,40.00,6,4,10,0.00
2012-11-3,87,71,43,50,40,34,82,39,16,0.00,40.00,8,5,12,0.00
2012-11-4,89,70,44,45,38,33,76,38,14,0.00,40.00,8,5,12,0.00
2012-11-5,91,72,45,42,38,33,74,35,13,0.00,40.00,8,5,12,0.00
2012-11-6,90,70,44,47,40,35,77,39,17,0.00,40.00,6,4,10,0.00
2012-11-7,91,71,42,50,40,34,81,39,16,0.00,40.00,5,3,7,0.00
2012-11-8,82,70,52,53,44,35,58,41,25,0.00,40.00,9,5,17,0.00
2012-11-9,74,64,55,50,41,33,72,44,31,0.00,40.00,16,10,28,0.00
2012-11-10,67,56,44,37,31,18,68,39,20,0.00,40.00,13,7,21,0.00
2012-11-11,66,53,30,26,22,18,63,33,16,0.00,40.00,11,6,17,0.00
2012-11-12,69,53,30,24,18,14,64,29,12,0.00,40.00,11,6,17,0.00
2012-11-13,75,58,30,27,19,14,61,26,10,0.00,40.00,10,6,14,0.00
2012-11-14,77,59,32,33,21,-100,65,28,12,0.00,40.00,8,5,14,0.00
2012-11-15,66,58,41,39,32,26,63,39,23,0.00,40.00,6,3,9,0.00
2012-11-16,84,67,38,42,35,27,73,34,16,0.00,40.00,5,4,8,0.00
2012-11-17,81,67,55,50,44,36,61,45,30,0.00,40.00,11,6,22,0.00
2012-11-18,80,64,48,49,44,41,78,51,28,0.00,40.00,7,4,11,0.00
2012-11-19,80,63,42,46,42,32,85,50,22,0.00,40.00,5,3,10,0.00
2012-11-20,78,62,37,46,40,31,85,49,27,0.00,40.00,7,4,11,0.00
2012-11-21,80,61,37,44,38,29,84,48,24,0.00,40.00,5,3,11,0.00
2012-11-22,79,60,36,45,38,27,85,49,25,0.00,40.00,8,4,13,0.00
2012-11-23,81,64,38,40,37,31,83,41,19,0.00,40.00,9,5,14,0.00
2012-11-24,82,66,43,41,35,33,70,36,18,0.00,40.00,9,5,15,0.00
2012-11-25,84,64,38,42,35,28,79,40,17,0.00,40.00,5,3,9,0.00
2012-11-26,58,49,39,37,33,31,78,56,39,0.00,40.00,5,3,9,0.00
2012-11-27,78,62,37,38,34,27,84,41,19,0.00,40.00,9,5,14,0.00
2012-11-28,82,64,36,43,36,26,82,39,19,0.00,40.00,5,4,12,0.00
2012-11-29,82,66,52,52,48,44,75,55,30,0.00,40.00,13,6,19,0.00
2012-11-30,80,67,54,55,50,47,78,57,37,0.00,40.00,9,5,16,0.00
2012-12-1,79,64,46,53,50,41,84,62,35,0.00,40.00,6,4,10,0.00
2012-12-2,80,64,44,50,47,39,87,58,33,0.00,40.00,10,4,16,0.00
2012-12-3,80,65,51,51,48,41,78,58,34,0.00,40.00,5,4,9,0.00
2012-12-4,79,66,46,51,48,40,85,55,35,0.00,40.00,8,5,12,0.00
2012-12-5,78,63,40,48,44,36,86,54,33,0.00,40.00,7,4,10,0.00
2012-12-6,77,62,42,46,42,36,84,52,30,0.00,40.00,6,4,11,0.00
2012-12-7,79,64,38,46,39,30,82,44,24,0.00,40.00,8,4,13,0.00
2012-12-8,67,49,32,33,30,24,74,51,25,0.00,40.00,6,3,9,0.00
2012-12-9,74,58,32,32,28,20,80,38,18,0.00,40.00,10,5,16,0.00
2012-12-10,69,60,39,29,24,22,55,27,17,0.00,40.00,10,6,18,0.00
2012-12-11,72,56,33,35,28,21,67,38,22,0.00,40.00,6,4,10,0.00
2012-12-12,74,57,31,39,29,21,77,38,17,0.00,40.00,10,5,16,0.00
2012-12-13,70,58,50,52,45,39,96,65,36,0.00,40.00,12,6,20,0.61
2012-12-14,62,54,47,52,42,38,97,65,43,0.00,40.00,12,6,20,0.61
2012-12-15,57,49,43,49,45,42,97,85,62,0.00,40.00,6,3,9,0.11
2012-12-16,65,51,39,48,43,38,97,78,40,0.00,40.00,5,3,9,0.03
2012-12-17,68,57,48,46,44,41,90,66,45,0.00,40.00,8,4,13,0.00
2012-12-18,67,56,45,55,44,19,89,65,37,0.00,40.00,16,7,30,0.01
2012-12-19,59,51,34,27,20,13,65,31,17,0.00,40.00,15,9,29,0.01
2012-12-20,57,46,26,31,26,22,84,48,28,0.00,40.00,11,6,16,0.00
2012-12-21,58,47,27,34,29,24,89,52,30,0.00,40.00,8,5,13,0.00
2012-12-22,66,50,29,36,32,26,89,56,26,0.00,40.00,5,3,8,0.00
2012-12-23,64,49,27,38,33,25,93,59,30,0.00,40.00,7,3,11,0.00
2012-12-24,74,57,45,47,42,28,79,60,35,0.00,40.00,12,6,19,0.00
2012-12-25,58,50,34,29,22,17,67,36,20,0.00,40.00,7,5,13,0.00
2012-12-26,66,50,32,36,29,18,82,49,17,0.00,40.00,12,6,20,0.00
2012-12-27,63,48,34,37,32,27,90,58,29,0.00,40.00,12,5,20,0.00
2012-12-28,61,47,26,30,27,23,87,50,27,0.00,40.00,8,5,13,0.00
2012-12-29,63,46,26,32,29,22,90,55,26,0.00,40.00,6,3,11,0.00
2012-12-30,61,50,30,35,32,27,89,52,32,0.00,40.00,7,4,14,0.00
2012-12-31,60,48,30,35,26,16,91,50,18,0.00,40.00,8,4,15,0.00
2013-1-1,54,42,23,27,23,17,86,49,27,0.00,40.00,10,5,15,0.00